sensor_id;sensor_type;location;lat;lon;timestamp;temperature;humidity
76857;DHT22;69705;44.686;37.628;2023-11-19T00:01:05;11.05;84.23
76857;DHT22;69705;44.686;37.628;2023-11-19T00:03:32;11.09;84.38
76857;DHT22;69705;44.686;37.628;2023-11-19T00:05:59;11.19;82.12
76857;DHT22;69705;44.686;37.628;2023-11-19T00:08:26;11.27;79.62
76857;DHT22;69705;44.686;37.628;2023-11-19T00:10:53;11.29;80.98
76857;DHT22;69705;44.686;37.628;2023-11-19T00:13:19;11.26;82.40
76857;DHT22;69705;44.686;37.628;2023-11-19T00:15:46;11.19;86.58
76857;DHT22;69705;44.686;37.628;2023-11-19T00:18:13;11.12;87.69
76857;DHT22;69705;44.686;37.628;2023-11-19T00:20:40;11.10;88.31
76857;DHT22;69705;44.686;37.628;2023-11-19T00:23:07;11.03;84.84
76857;DHT22;69705;44.686;37.628;2023-11-19T00:25:34;10.95;85.30
76857;DHT22;69705;44.686;37.628;2023-11-19T00:28:01;10.83;85.30
76857;DHT22;69705;44.686;37.628;2023-11-19T00:30:27;10.74;89.93
76857;DHT22;69705;44.686;37.628;2023-11-19T00:32:54;10.82;89.64
76857;DHT22;69705;44.686;37.628;2023-11-19T00:35:21;10.86;87.73
76857;DHT22;69705;44.686;37.628;2023-11-19T00:37:47;10.82;87.41
76857;DHT22;69705;44.686;37.628;2023-11-19T00:40:15;10.79;88.57
76857;DHT22;69705;44.686;37.628;2023-11-19T00:42:44;10.75;88.57
76857;DHT22;69705;44.686;37.628;2023-11-19T00:45:11;10.78;89.18
76857;DHT22;69705;44.686;37.628;2023-11-19T00:47:39;10.83;89.24
76857;DHT22;69705;44.686;37.628;2023-11-19T00:50:07;10.87;89.38
76857;DHT22;69705;44.686;37.628;2023-11-19T00:52:38;10.77;88.80
76857;DHT22;69705;44.686;37.628;2023-11-19T00:55:05;10.74;88.99
76857;DHT22;69705;44.686;37.628;2023-11-19T00:57:33;10.73;88.79
76857;DHT22;69705;44.686;37.628;2023-11-19T00:59:59;10.63;88.37
76857;DHT22;69705;44.686;37.628;2023-11-19T01:02:26;10.57;89.70
76857;DHT22;69705;44.686;37.628;2023-11-19T01:04:53;10.57;91.28
76857;DHT22;69705;44.686;37.628;2023-11-19T01:07:20;10.53;90.44
76857;DHT22;69705;44.686;37.628;2023-11-19T01:09:48;10.49;90.66
76857;DHT22;69705;44.686;37.628;2023-11-19T01:12:14;10.42;89.66
76857;DHT22;69705;44.686;37.628;2023-11-19T01:14:42;10.39;90.00
76857;DHT22;69705;44.686;37.628;2023-11-19T01:17:09;10.35;90.31
76857;DHT22;69705;44.686;37.628;2023-11-19T01:19:35;10.26;89.70
76857;DHT22;69705;44.686;37.628;2023-11-19T01:22:02;10.23;90.12
76857;DHT22;69705;44.686;37.628;2023-11-19T01:24:29;10.20;90.41
76857;DHT22;69705;44.686;37.628;2023-11-19T01:26:57;10.21;90.78
76857;DHT22;69705;44.686;37.628;2023-11-19T01:29:26;10.12;89.70
76857;DHT22;69705;44.686;37.628;2023-11-19T01:31:52;10.07;90.72
76857;DHT22;69705;44.686;37.628;2023-11-19T01:34:19;10.06;91.20
76857;DHT22;69705;44.686;37.628;2023-11-19T01:36:46;10.04;90.79
76857;DHT22;69705;44.686;37.628;2023-11-19T01:39:15;10.03;90.57
76857;DHT22;69705;44.686;37.628;2023-11-19T01:41:46;9.99;90.88
76857;DHT22;69705;44.686;37.628;2023-11-19T01:44:12;9.97;91.68
76857;DHT22;69705;44.686;37.628;2023-11-19T01:46:44;9.95;91.80
76857;DHT22;69705;44.686;37.628;2023-11-19T01:49:14;9.93;91.92
76857;DHT22;69705;44.686;37.628;2023-11-19T01:51:42;9.96;91.60
76857;DHT22;69705;44.686;37.628;2023-11-19T01:54:09;9.97;91.93
76857;DHT22;69705;44.686;37.628;2023-11-19T01:56:37;10.01;91.42
76857;DHT22;69705;44.686;37.628;2023-11-19T01:59:07;10.01;91.33
76857;DHT22;69705;44.686;37.628;2023-11-19T02:01:36;10.10;91.89
76857;DHT22;69705;44.686;37.628;2023-11-19T02:04:07;10.20;91.79
76857;DHT22;69705;44.686;37.628;2023-11-19T02:06:34;10.20;91.76
76857;DHT22;69705;44.686;37.628;2023-11-19T02:09:03;10.23;91.40
76857;DHT22;69705;44.686;37.628;2023-11-19T02:11:34;10.24;90.42
76857;DHT22;69705;44.686;37.628;2023-11-19T02:14:01;10.23;90.69
76857;DHT22;69705;44.686;37.628;2023-11-19T02:16:29;10.25;91.01
76857;DHT22;69705;44.686;37.628;2023-11-19T02:18:56;10.23;90.79
76857;DHT22;69705;44.686;37.628;2023-11-19T02:21:23;10.20;90.98
76857;DHT22;69705;44.686;37.628;2023-11-19T02:23:49;10.18;90.99
76857;DHT22;69705;44.686;37.628;2023-11-19T02:26:35;10.15;91.32
76857;DHT22;69705;44.686;37.628;2023-11-19T02:29:03;10.20;91.58
76857;DHT22;69705;44.686;37.628;2023-11-19T02:31:29;10.25;91.57
76857;DHT22;69705;44.686;37.628;2023-11-19T02:33:56;10.30;90.98
76857;DHT22;69705;44.686;37.628;2023-11-19T02:36:23;10.35;92.21
76857;DHT22;69705;44.686;37.628;2023-11-19T02:38:49;10.35;92.56
76857;DHT22;69705;44.686;37.628;2023-11-19T02:41:16;10.34;92.67
76857;DHT22;69705;44.686;37.628;2023-11-19T02:43:42;10.36;92.13
76857;DHT22;69705;44.686;37.628;2023-11-19T02:46:09;10.35;91.92
76857;DHT22;69705;44.686;37.628;2023-11-19T02:48:37;10.35;91.40
76857;DHT22;69705;44.686;37.628;2023-11-19T02:51:06;10.38;91.89
76857;DHT22;69705;44.686;37.628;2023-11-19T02:53:36;10.37;90.67
76857;DHT22;69705;44.686;37.628;2023-11-19T02:56:06;10.37;90.16
76857;DHT22;69705;44.686;37.628;2023-11-19T02:58:46;10.38;90.55
76857;DHT22;69705;44.686;37.628;2023-11-19T03:01:13;10.38;90.12
76857;DHT22;69705;44.686;37.628;2023-11-19T03:03:50;10.38;89.74
76857;DHT22;69705;44.686;37.628;2023-11-19T03:06:23;10.39;89.37
76857;DHT22;69705;44.686;37.628;2023-11-19T03:08:49;10.36;89.42
76857;DHT22;69705;44.686;37.628;2023-11-19T03:11:16;10.35;88.60
76857;DHT22;69705;44.686;37.628;2023-11-19T03:13:42;10.31;88.62
76857;DHT22;69705;44.686;37.628;2023-11-19T03:16:09;10.28;89.25
76857;DHT22;69705;44.686;37.628;2023-11-19T03:18:38;10.25;88.52
76857;DHT22;69705;44.686;37.628;2023-11-19T03:21:08;10.29;88.97
76857;DHT22;69705;44.686;37.628;2023-11-19T03:23:35;10.36;88.31
76857;DHT22;69705;44.686;37.628;2023-11-19T03:26:03;10.37;88.60
76857;DHT22;69705;44.686;37.628;2023-11-19T03:28:31;10.38;88.27
76857;DHT22;69705;44.686;37.628;2023-11-19T03:30:58;10.36;88.44
76857;DHT22;69705;44.686;37.628;2023-11-19T03:33:25;10.37;89.02
76857;DHT22;69705;44.686;37.628;2023-11-19T03:35:54;10.37;89.39
76857;DHT22;69705;44.686;37.628;2023-11-19T03:38:23;10.41;88.36
76857;DHT22;69705;44.686;37.628;2023-11-19T03:40:50;10.44;88.12
76857;DHT22;69705;44.686;37.628;2023-11-19T03:43:17;10.48;88.60
76857;DHT22;69705;44.686;37.628;2023-11-19T03:45:45;10.53;88.12
76857;DHT22;69705;44.686;37.628;2023-11-19T03:48:13;10.57;89.61
76857;DHT22;69705;44.686;37.628;2023-11-19T03:50:42;10.62;88.70
76857;DHT22;69705;44.686;37.628;2023-11-19T03:53:11;10.65;89.05
76857;DHT22;69705;44.686;37.628;2023-11-19T03:55:38;10.65;88.64
76857;DHT22;69705;44.686;37.628;2023-11-19T03:58:05;10.70;88.98
76857;DHT22;69705;44.686;37.628;2023-11-19T04:00:32;10.67;87.82
76857;DHT22;69705;44.686;37.628;2023-11-19T04:02:59;10.68;87.38
76857;DHT22;69705;44.686;37.628;2023-11-19T04:05:27;10.66;88.89
76857;DHT22;69705;44.686;37.628;2023-11-19T04:07:54;10.67;87.89
76857;DHT22;69705;44.686;37.628;2023-11-19T04:10:21;10.68;87.39
76857;DHT22;69705;44.686;37.628;2023-11-19T04:12:49;10.71;87.37
76857;DHT22;69705;44.686;37.628;2023-11-19T04:15:16;10.72;88.91
76857;DHT22;69705;44.686;37.628;2023-11-19T04:17:43;10.69;87.96
76857;DHT22;69705;44.686;37.628;2023-11-19T04:20:10;10.71;88.86
76857;DHT22;69705;44.686;37.628;2023-11-19T04:22:39;10.72;88.46
76857;DHT22;69705;44.686;37.628;2023-11-19T04:25:07;10.70;88.79
76857;DHT22;69705;44.686;37.628;2023-11-19T04:27:34;10.71;88.38
76857;DHT22;69705;44.686;37.628;2023-11-19T04:30:01;10.70;87.62
76857;DHT22;69705;44.686;37.628;2023-11-19T04:32:29;10.63;87.19
76857;DHT22;69705;44.686;37.628;2023-11-19T04:34:56;10.60;88.15
76857;DHT22;69705;44.686;37.628;2023-11-19T04:37:23;10.64;88.65
76857;DHT22;69705;44.686;37.628;2023-11-19T04:39:50;10.69;88.40
76857;DHT22;69705;44.686;37.628;2023-11-19T04:42:17;10.75;88.46
76857;DHT22;69705;44.686;37.628;2023-11-19T04:44:44;10.77;87.14
76857;DHT22;69705;44.686;37.628;2023-11-19T04:47:11;10.80;87.35
76857;DHT22;69705;44.686;37.628;2023-11-19T04:49:41;10.83;88.99
76857;DHT22;69705;44.686;37.628;2023-11-19T04:52:11;10.81;87.87
76857;DHT22;69705;44.686;37.628;2023-11-19T04:54:44;10.80;87.89
76857;DHT22;69705;44.686;37.628;2023-11-19T04:57:10;10.79;87.73
76857;DHT22;69705;44.686;37.628;2023-11-19T04:59:37;10.80;88.44
76857;DHT22;69705;44.686;37.628;2023-11-19T05:02:05;10.84;88.07
76857;DHT22;69705;44.686;37.628;2023-11-19T05:04:35;10.83;89.76
76857;DHT22;69705;44.686;37.628;2023-11-19T05:07:03;10.93;87.72
76857;DHT22;69705;44.686;37.628;2023-11-19T05:09:31;11.03;87.31
76857;DHT22;69705;44.686;37.628;2023-11-19T05:11:57;11.14;86.85
76857;DHT22;69705;44.686;37.628;2023-11-19T05:14:24;11.18;86.77
76857;DHT22;69705;44.686;37.628;2023-11-19T05:16:51;11.20;85.77
76857;DHT22;69705;44.686;37.628;2023-11-19T05:19:17;11.24;88.44
76857;DHT22;69705;44.686;37.628;2023-11-19T05:21:44;11.27;86.82
76857;DHT22;69705;44.686;37.628;2023-11-19T05:24:11;11.29;87.71
76857;DHT22;69705;44.686;37.628;2023-11-19T05:26:38;11.30;87.57
76857;DHT22;69705;44.686;37.628;2023-11-19T05:29:04;11.38;87.27
76857;DHT22;69705;44.686;37.628;2023-11-19T05:31:31;11.30;86.97
76857;DHT22;69705;44.686;37.628;2023-11-19T05:33:58;11.23;88.91
76857;DHT22;69705;44.686;37.628;2023-11-19T05:36:24;11.25;88.54
76857;DHT22;69705;44.686;37.628;2023-11-19T05:38:51;11.01;86.04
76857;DHT22;69705;44.686;37.628;2023-11-19T05:41:17;10.86;87.67
76857;DHT22;69705;44.686;37.628;2023-11-19T05:43:44;10.81;87.54
76857;DHT22;69705;44.686;37.628;2023-11-19T05:46:10;10.84;87.64
76857;DHT22;69705;44.686;37.628;2023-11-19T05:48:40;10.77;89.09
76857;DHT22;69705;44.686;37.628;2023-11-19T05:51:06;10.67;90.59
76857;DHT22;69705;44.686;37.628;2023-11-19T05:53:33;10.65;90.11
76857;DHT22;69705;44.686;37.628;2023-11-19T05:56:00;10.62;88.31
76857;DHT22;69705;44.686;37.628;2023-11-19T05:58:30;10.68;87.92
76857;DHT22;69705;44.686;37.628;2023-11-19T06:00:57;10.59;89.38
76857;DHT22;69705;44.686;37.628;2023-11-19T06:03:23;10.62;90.99
76857;DHT22;69705;44.686;37.628;2023-11-19T06:05:50;10.53;89.78
76857;DHT22;69705;44.686;37.628;2023-11-19T06:08:17;10.51;91.78
76857;DHT22;69705;44.686;37.628;2023-11-19T06:10:44;10.41;91.33
76857;DHT22;69705;44.686;37.628;2023-11-19T06:13:16;10.45;89.38
76857;DHT22;69705;44.686;37.628;2023-11-19T06:15:43;10.50;91.07
76857;DHT22;69705;44.686;37.628;2023-11-19T06:18:10;10.57;90.00
76857;DHT22;69705;44.686;37.628;2023-11-19T06:20:38;10.64;91.44
76857;DHT22;69705;44.686;37.628;2023-11-19T06:23:05;10.71;92.98
76857;DHT22;69705;44.686;37.628;2023-11-19T06:25:31;10.77;93.40
76857;DHT22;69705;44.686;37.628;2023-11-19T06:27:59;10.84;93.44
76857;DHT22;69705;44.686;37.628;2023-11-19T06:30:25;10.98;91.36
76857;DHT22;69705;44.686;37.628;2023-11-19T06:32:54;11.07;93.69
76857;DHT22;69705;44.686;37.628;2023-11-19T06:35:21;11.10;90.25
76857;DHT22;69705;44.686;37.628;2023-11-19T06:37:47;11.19;91.18
76857;DHT22;69705;44.686;37.628;2023-11-19T06:40:14;11.22;90.82
76857;DHT22;69705;44.686;37.628;2023-11-19T06:42:42;11.29;93.54
76857;DHT22;69705;44.686;37.628;2023-11-19T06:45:08;11.29;91.22
76857;DHT22;69705;44.686;37.628;2023-11-19T06:47:36;11.28;91.53
76857;DHT22;69705;44.686;37.628;2023-11-19T06:50:03;11.17;92.10
76857;DHT22;69705;44.686;37.628;2023-11-19T06:52:31;11.07;93.14
76857;DHT22;69705;44.686;37.628;2023-11-19T06:54:58;10.93;94.20
76857;DHT22;69705;44.686;37.628;2023-11-19T06:57:25;10.89;93.66
76857;DHT22;69705;44.686;37.628;2023-11-19T06:59:52;10.93;93.60
76857;DHT22;69705;44.686;37.628;2023-11-19T07:02:18;10.96;93.07
76857;DHT22;69705;44.686;37.628;2023-11-19T07:04:45;11.00;94.31
76857;DHT22;69705;44.686;37.628;2023-11-19T07:07:11;11.02;94.02
76857;DHT22;69705;44.686;37.628;2023-11-19T07:09:40;10.99;94.36
76857;DHT22;69705;44.686;37.628;2023-11-19T07:12:06;10.99;95.85
76857;DHT22;69705;44.686;37.628;2023-11-19T07:14:33;11.03;95.55
76857;DHT22;69705;44.686;37.628;2023-11-19T07:17:00;11.13;94.18
76857;DHT22;69705;44.686;37.628;2023-11-19T07:19:26;11.10;93.51
76857;DHT22;69705;44.686;37.628;2023-11-19T07:21:53;11.04;96.21
76857;DHT22;69705;44.686;37.628;2023-11-19T07:24:20;10.93;93.53
76857;DHT22;69705;44.686;37.628;2023-11-19T07:26:48;11.01;93.31
76857;DHT22;69705;44.686;37.628;2023-11-19T07:29:15;11.08;93.24
76857;DHT22;69705;44.686;37.628;2023-11-19T07:31:42;11.01;92.79
76857;DHT22;69705;44.686;37.628;2023-11-19T07:34:12;11.04;92.91
76857;DHT22;69705;44.686;37.628;2023-11-19T07:36:40;11.09;93.72
76857;DHT22;69705;44.686;37.628;2023-11-19T07:39:07;11.11;93.62
76857;DHT22;69705;44.686;37.628;2023-11-19T07:41:34;11.10;93.16
76857;DHT22;69705;44.686;37.628;2023-11-19T07:44:05;11.10;91.68
76857;DHT22;69705;44.686;37.628;2023-11-19T07:46:32;11.01;92.08
76857;DHT22;69705;44.686;37.628;2023-11-19T07:48:59;10.87;93.03
76857;DHT22;69705;44.686;37.628;2023-11-19T07:51:26;10.89;93.40
76857;DHT22;69705;44.686;37.628;2023-11-19T07:53:53;10.92;94.11
76857;DHT22;69705;44.686;37.628;2023-11-19T07:56:19;10.89;94.90
76857;DHT22;69705;44.686;37.628;2023-11-19T07:58:46;10.99;94.89
76857;DHT22;69705;44.686;37.628;2023-11-19T08:01:15;11.00;94.40
76857;DHT22;69705;44.686;37.628;2023-11-19T08:03:42;11.02;93.72
76857;DHT22;69705;44.686;37.628;2023-11-19T08:06:11;11.04;94.05
76857;DHT22;69705;44.686;37.628;2023-11-19T08:08:37;11.03;94.52
76857;DHT22;69705;44.686;37.628;2023-11-19T08:11:05;11.05;94.75
76857;DHT22;69705;44.686;37.628;2023-11-19T08:13:31;11.12;94.70
76857;DHT22;69705;44.686;37.628;2023-11-19T08:15:58;11.08;94.06
76857;DHT22;69705;44.686;37.628;2023-11-19T08:18:25;11.09;94.47
76857;DHT22;69705;44.686;37.628;2023-11-19T08:20:51;11.11;94.86
76857;DHT22;69705;44.686;37.628;2023-11-19T08:23:20;11.22;95.70
76857;DHT22;69705;44.686;37.628;2023-11-19T08:25:47;11.31;96.20
76857;DHT22;69705;44.686;37.628;2023-11-19T08:28:13;11.34;94.86
76857;DHT22;69705;44.686;37.628;2023-11-19T08:30:40;11.19;91.41
76857;DHT22;69705;44.686;37.628;2023-11-19T08:33:07;11.12;93.53
76857;DHT22;69705;44.686;37.628;2023-11-19T08:35:33;11.11;93.37
76857;DHT22;69705;44.686;37.628;2023-11-19T08:38:00;11.10;94.20
76857;DHT22;69705;44.686;37.628;2023-11-19T08:40:27;11.09;94.17
76857;DHT22;69705;44.686;37.628;2023-11-19T08:42:56;11.01;94.30
76857;DHT22;69705;44.686;37.628;2023-11-19T08:45:22;11.01;94.40
76857;DHT22;69705;44.686;37.628;2023-11-19T08:47:50;10.98;94.64
76857;DHT22;69705;44.686;37.628;2023-11-19T08:50:16;10.92;94.27
76857;DHT22;69705;44.686;37.628;2023-11-19T08:52:43;10.88;94.92
76857;DHT22;69705;44.686;37.628;2023-11-19T08:55:10;10.80;94.70
76857;DHT22;69705;44.686;37.628;2023-11-19T08:57:37;10.75;94.81
76857;DHT22;69705;44.686;37.628;2023-11-19T09:00:05;10.68;94.81
76857;DHT22;69705;44.686;37.628;2023-11-19T09:02:35;10.65;95.21
76857;DHT22;69705;44.686;37.628;2023-11-19T09:05:04;10.63;95.02
76857;DHT22;69705;44.686;37.628;2023-11-19T09:07:31;10.68;95.99
76857;DHT22;69705;44.686;37.628;2023-11-19T09:09:58;10.64;95.14
76857;DHT22;69705;44.686;37.628;2023-11-19T09:12:25;10.70;95.75
76857;DHT22;69705;44.686;37.628;2023-11-19T09:14:51;10.67;95.59
76857;DHT22;69705;44.686;37.628;2023-11-19T09:17:18;10.82;94.68
76857;DHT22;69705;44.686;37.628;2023-11-19T09:19:45;10.92;95.72
76857;DHT22;69705;44.686;37.628;2023-11-19T09:22:12;10.92;95.45
76857;DHT22;69705;44.686;37.628;2023-11-19T09:24:38;10.98;93.99
76857;DHT22;69705;44.686;37.628;2023-11-19T09:27:05;11.00;94.81
76857;DHT22;69705;44.686;37.628;2023-11-19T09:29:32;10.97;94.07
76857;DHT22;69705;44.686;37.628;2023-11-19T09:31:59;10.95;94.72
76857;DHT22;69705;44.686;37.628;2023-11-19T09:34:26;10.94;94.84
76857;DHT22;69705;44.686;37.628;2023-11-19T09:36:52;10.83;94.43
76857;DHT22;69705;44.686;37.628;2023-11-19T09:39:19;10.82;95.10
76857;DHT22;69705;44.686;37.628;2023-11-19T09:41:47;10.82;95.34
76857;DHT22;69705;44.686;37.628;2023-11-19T09:44:15;10.73;94.43
76857;DHT22;69705;44.686;37.628;2023-11-19T09:46:44;10.78;94.64
76857;DHT22;69705;44.686;37.628;2023-11-19T09:49:13;10.73;94.27
76857;DHT22;69705;44.686;37.628;2023-11-19T09:51:40;10.77;95.23
76857;DHT22;69705;44.686;37.628;2023-11-19T09:54:09;10.78;94.91
76857;DHT22;69705;44.686;37.628;2023-11-19T09:56:37;10.78;94.98
76857;DHT22;69705;44.686;37.628;2023-11-19T09:59:05;10.81;94.79
76857;DHT22;69705;44.686;37.628;2023-11-19T10:01:33;10.79;94.67
76857;DHT22;69705;44.686;37.628;2023-11-19T10:04:01;10.83;94.74
76857;DHT22;69705;44.686;37.628;2023-11-19T10:06:28;10.92;94.83
76857;DHT22;69705;44.686;37.628;2023-11-19T10:08:55;10.87;92.72
76857;DHT22;69705;44.686;37.628;2023-11-19T10:11:22;10.96;94.70
76857;DHT22;69705;44.686;37.628;2023-11-19T10:13:49;11.12;95.60
76857;DHT22;69705;44.686;37.628;2023-11-19T10:16:15;11.18;94.94
76857;DHT22;69705;44.686;37.628;2023-11-19T10:18:48;11.24;93.16
76857;DHT22;69705;44.686;37.628;2023-11-19T10:21:19;11.23;93.80
76857;DHT22;69705;44.686;37.628;2023-11-19T10:23:53;11.15;93.71
76857;DHT22;69705;44.686;37.628;2023-11-19T10:26:21;11.16;93.87
76857;DHT22;69705;44.686;37.628;2023-11-19T10:28:48;11.18;93.30
76857;DHT22;69705;44.686;37.628;2023-11-19T10:31:16;11.15;92.75
76857;DHT22;69705;44.686;37.628;2023-11-19T10:33:43;11.11;93.25
76857;DHT22;69705;44.686;37.628;2023-11-19T10:36:11;11.08;93.92
76857;DHT22;69705;44.686;37.628;2023-11-19T10:38:39;11.07;92.71
76857;DHT22;69705;44.686;37.628;2023-11-19T10:41:07;11.05;94.63
76857;DHT22;69705;44.686;37.628;2023-11-19T10:43:43;10.99;93.46
76857;DHT22;69705;44.686;37.628;2023-11-19T10:46:14;10.94;92.51
76857;DHT22;69705;44.686;37.628;2023-11-19T10:48:41;11.00;94.19
76857;DHT22;69705;44.686;37.628;2023-11-19T10:51:08;11.02;94.19
76857;DHT22;69705;44.686;37.628;2023-11-19T10:53:37;11.02;94.81
76857;DHT22;69705;44.686;37.628;2023-11-19T10:56:10;11.10;94.65
76857;DHT22;69705;44.686;37.628;2023-11-19T10:58:43;11.09;93.49
76857;DHT22;69705;44.686;37.628;2023-11-19T11:01:19;11.16;94.55
76857;DHT22;69705;44.686;37.628;2023-11-19T11:03:51;11.27;94.52
76857;DHT22;69705;44.686;37.628;2023-11-19T11:06:21;11.30;95.52
76857;DHT22;69705;44.686;37.628;2023-11-19T11:08:48;11.41;95.03
76857;DHT22;69705;44.686;37.628;2023-11-19T11:11:16;11.42;93.60
76857;DHT22;69705;44.686;37.628;2023-11-19T11:13:47;11.44;93.52
76857;DHT22;69705;44.686;37.628;2023-11-19T11:16:20;11.44;93.90
76857;DHT22;69705;44.686;37.628;2023-11-19T11:18:49;11.56;94.21
76857;DHT22;69705;44.686;37.628;2023-11-19T11:21:20;11.58;94.44
76857;DHT22;69705;44.686;37.628;2023-11-19T11:29:21;11.67;96.87
76857;DHT22;69705;44.686;37.628;2023-11-19T11:34:53;11.85;93.55
76857;DHT22;69705;44.686;37.628;2023-11-19T11:37:37;11.79;95.35
76857;DHT22;69705;44.686;37.628;2023-11-19T11:40:06;11.89;94.57
76857;DHT22;69705;44.686;37.628;2023-11-19T11:42:36;11.92;94.92
76857;DHT22;69705;44.686;37.628;2023-11-19T11:45:04;12.03;95.84
76857;DHT22;69705;44.686;37.628;2023-11-19T11:50:18;12.66;97.47
76857;DHT22;69705;44.686;37.628;2023-11-19T11:55:28;13.05;96.75
76857;DHT22;69705;44.686;37.628;2023-11-19T11:57:56;13.19;96.34
76857;DHT22;69705;44.686;37.628;2023-11-19T12:00:29;13.27;95.84
76857;DHT22;69705;44.686;37.628;2023-11-19T12:02:59;13.38;95.62
76857;DHT22;69705;44.686;37.628;2023-11-19T12:05:27;13.44;95.44
76857;DHT22;69705;44.686;37.628;2023-11-19T12:08:01;13.50;95.93
76857;DHT22;69705;44.686;37.628;2023-11-19T12:10:30;13.52;96.85
76857;DHT22;69705;44.686;37.628;2023-11-19T12:13:01;13.52;96.63
76857;DHT22;69705;44.686;37.628;2023-11-19T12:15:28;13.55;97.26
76857;DHT22;69705;44.686;37.628;2023-11-19T12:17:55;13.58;96.91
76857;DHT22;69705;44.686;37.628;2023-11-19T12:20:23;13.59;96.47
76857;DHT22;69705;44.686;37.628;2023-11-19T12:22:51;13.69;95.86
76857;DHT22;69705;44.686;37.628;2023-11-19T12:25:19;13.77;94.91
76857;DHT22;69705;44.686;37.628;2023-11-19T12:27:48;13.82;93.91
76857;DHT22;69705;44.686;37.628;2023-11-19T12:30:25;13.84;94.59
76857;DHT22;69705;44.686;37.628;2023-11-19T12:32:53;13.83;93.97
76857;DHT22;69705;44.686;37.628;2023-11-19T12:35:20;13.86;93.94
76857;DHT22;69705;44.686;37.628;2023-11-19T12:37:51;13.90;94.72
76857;DHT22;69705;44.686;37.628;2023-11-19T12:40:24;13.92;95.25
76857;DHT22;69705;44.686;37.628;2023-11-19T12:42:54;13.92;96.38
76857;DHT22;69705;44.686;37.628;2023-11-19T12:45:22;13.82;95.94
76857;DHT22;69705;44.686;37.628;2023-11-19T12:48:04;13.79;95.72
76857;DHT22;69705;44.686;37.628;2023-11-19T12:50:57;13.69;95.97
76857;DHT22;69705;44.686;37.628;2023-11-19T12:53:25;13.73;95.84
76857;DHT22;69705;44.686;37.628;2023-11-19T12:55:53;13.84;96.26
76857;DHT22;69705;44.686;37.628;2023-11-19T12:58:32;13.90;95.02
76857;DHT22;69705;44.686;37.628;2023-11-19T13:01:06;13.90;93.65
76857;DHT22;69705;44.686;37.628;2023-11-19T13:03:35;13.82;94.59
76857;DHT22;69705;44.686;37.628;2023-11-19T13:06:07;13.77;93.90
76857;DHT22;69705;44.686;37.628;2023-11-19T13:08:38;13.69;94.52
76857;DHT22;69705;44.686;37.628;2023-11-19T13:11:06;13.59;93.38
76857;DHT22;69705;44.686;37.628;2023-11-19T13:13:57;13.55;93.72
76857;DHT22;69705;44.686;37.628;2023-11-19T13:16:24;13.48;92.72
76857;DHT22;69705;44.686;37.628;2023-11-19T13:18:52;13.49;92.96
76857;DHT22;69705;44.686;37.628;2023-11-19T13:21:19;13.48;93.34
76857;DHT22;69705;44.686;37.628;2023-11-19T13:23:46;13.48;93.59
76857;DHT22;69705;44.686;37.628;2023-11-19T13:26:12;13.47;93.88
76857;DHT22;69705;44.686;37.628;2023-11-19T13:28:39;13.48;93.65
76857;DHT22;69705;44.686;37.628;2023-11-19T13:31:06;13.44;94.20
76857;DHT22;69705;44.686;37.628;2023-11-19T13:33:34;13.36;94.82
76857;DHT22;69705;44.686;37.628;2023-11-19T13:36:01;13.30;95.72
76857;DHT22;69705;44.686;37.628;2023-11-19T13:38:35;13.32;94.81
76857;DHT22;69705;44.686;37.628;2023-11-19T13:41:03;13.33;95.41
76857;DHT22;69705;44.686;37.628;2023-11-19T13:43:33;13.22;95.74
76857;DHT22;69705;44.686;37.628;2023-11-19T13:46:00;13.26;95.30
76857;DHT22;69705;44.686;37.628;2023-11-19T13:48:28;13.21;96.24
76857;DHT22;69705;44.686;37.628;2023-11-19T13:50:55;13.26;96.35
76857;DHT22;69705;44.686;37.628;2023-11-19T13:53:22;13.32;96.21
76857;DHT22;69705;44.686;37.628;2023-11-19T13:55:50;13.36;95.11
76857;DHT22;69705;44.686;37.628;2023-11-19T13:58:16;13.34;95.41
76857;DHT22;69705;44.686;37.628;2023-11-19T14:00:44;13.29;95.51
76857;DHT22;69705;44.686;37.628;2023-11-19T14:03:11;13.25;95.72
76857;DHT22;69705;44.686;37.628;2023-11-19T14:05:38;13.31;95.38
76857;DHT22;69705;44.686;37.628;2023-11-19T14:08:06;13.23;95.98
76857;DHT22;69705;44.686;37.628;2023-11-19T14:10:38;13.26;96.02
76857;DHT22;69705;44.686;37.628;2023-11-19T14:13:07;13.29;95.72
76857;DHT22;69705;44.686;37.628;2023-11-19T14:15:34;13.23;95.35
76857;DHT22;69705;44.686;37.628;2023-11-19T14:18:02;13.19;95.72
76857;DHT22;69705;44.686;37.628;2023-11-19T14:20:29;13.18;95.84
76857;DHT22;69705;44.686;37.628;2023-11-19T14:22:55;13.11;96.39
76857;DHT22;69705;44.686;37.628;2023-11-19T14:25:22;13.19;96.18
76857;DHT22;69705;44.686;37.628;2023-11-19T14:27:49;13.15;96.10
76857;DHT22;69705;44.686;37.628;2023-11-19T14:30:16;13.05;96.37
76857;DHT22;69705;44.686;37.628;2023-11-19T14:32:43;12.95;96.49
76857;DHT22;69705;44.686;37.628;2023-11-19T14:35:12;12.88;96.23
76857;DHT22;69705;44.686;37.628;2023-11-19T14:37:38;12.91;96.11
76857;DHT22;69705;44.686;37.628;2023-11-19T14:40:05;12.94;96.06
76857;DHT22;69705;44.686;37.628;2023-11-19T14:42:35;12.95;95.61
76857;DHT22;69705;44.686;37.628;2023-11-19T14:45:03;12.96;95.49
76857;DHT22;69705;44.686;37.628;2023-11-19T14:47:31;12.94;95.11
76857;DHT22;69705;44.686;37.628;2023-11-19T14:49:58;12.94;95.20
76857;DHT22;69705;44.686;37.628;2023-11-19T14:52:26;12.94;95.22
76857;DHT22;69705;44.686;37.628;2023-11-19T14:54:53;12.94;95.15
76857;DHT22;69705;44.686;37.628;2023-11-19T14:57:20;12.82;95.35
76857;DHT22;69705;44.686;37.628;2023-11-19T14:59:47;12.74;95.22
76857;DHT22;69705;44.686;37.628;2023-11-19T15:02:15;12.71;94.98
76857;DHT22;69705;44.686;37.628;2023-11-19T15:04:42;12.63;94.39
76857;DHT22;69705;44.686;37.628;2023-11-19T15:07:10;12.60;94.01
76857;DHT22;69705;44.686;37.628;2023-11-19T15:09:37;12.45;94.14
76857;DHT22;69705;44.686;37.628;2023-11-19T15:12:05;12.40;93.50
76857;DHT22;69705;44.686;37.628;2023-11-19T15:14:32;12.32;94.40
76857;DHT22;69705;44.686;37.628;2023-11-19T15:16:59;12.27;93.49
76857;DHT22;69705;44.686;37.628;2023-11-19T15:19:27;12.20;93.91
76857;DHT22;69705;44.686;37.628;2023-11-19T15:21:54;11.98;93.42
76857;DHT22;69705;44.686;37.628;2023-11-19T15:24:21;11.79;94.10
76857;DHT22;69705;44.686;37.628;2023-11-19T15:26:48;11.74;94.32
76857;DHT22;69705;44.686;37.628;2023-11-19T15:29:15;11.74;94.28
76857;DHT22;69705;44.686;37.628;2023-11-19T15:31:43;11.68;94.00
76857;DHT22;69705;44.686;37.628;2023-11-19T15:34:09;11.47;93.66
76857;DHT22;69705;44.686;37.628;2023-11-19T15:36:37;11.44;94.20